< Typhoon 196416 1964 Season Typhoon 196418 >
Typhoon 196417 (RUBY)
General InformationTrack Information on Google Maps || Disaster Info.ResourceGoogle EarthGE AnimationAtom FeedGeoJSON
Detalied Best Track (Time Zone = UTC)
Year Month Day Hour Lat. Long. Pressure (hPa) Wind (kt) Class Image Chart
1964 9 1 12 20.0 130.5 1004 0 2 -- Chart
1964 9 1 18 19.6 129.4 995 0 9 -- Chart
1964 9 2 00 19.5 128.0 995 0 9 -- Chart
1964 9 2 06 19.3 126.8 985 0 9 -- Chart
1964 9 2 12 19.2 125.5 978 0 9 -- Chart
1964 9 2 18 19.1 124.1 972 0 9 -- Chart
1964 9 3 00 19.0 122.9 970 0 9 -- Chart
1964 9 3 06 19.0 122.0 980 0 9 -- Chart
1964 9 3 12 19.1 121.5 980 0 9 -- Chart
1964 9 3 18 19.2 120.5 980 0 9 -- Chart
1964 9 4 00 19.2 119.2 982 0 9 -- Chart
1964 9 4 06 19.6 118.1 983 0 9 -- Chart
1964 9 4 12 20.0 117.0 983 0 9 -- Chart
1964 9 4 18 20.5 116.0 983 0 9 -- Chart
1964 9 5 00 21.4 115.0 984 0 9 -- Chart
1964 9 5 06 21.5 113.8 984 0 9 -- Chart
1964 9 5 12 22.4 112.0 992 0 9 -- Chart
1964 9 5 18 22.7 110.6 996 0 9 -- Chart
1964 9 6 00 24.4 110.0 1002 0 2 -- Chart
1964 9 6 06 25.2 109.5 1004 0 6 -- Chart
Japan Meteorological Agency Best Track Data | Correction Date : 1989-06-01
< Typhoon 196416 1964 Season Typhoon 196418 >

Help